createdAt,value
2022-11-15T00:00:25.030Z,10.60
2022-11-15T00:01:25.062Z,10.61
2022-11-15T00:02:25.109Z,10.61
2022-11-15T00:03:24.988Z,10.63
2022-11-15T00:04:25.039Z,10.61
2022-11-15T00:05:24.971Z,10.64
2022-11-15T00:06:24.974Z,10.63
2022-11-15T00:07:53.378Z,10.63
2022-11-15T00:08:26.094Z,10.64
2022-11-15T00:09:24.926Z,10.67
2022-11-15T00:10:24.947Z,10.68
2022-11-15T00:11:24.916Z,10.69
2022-11-15T00:12:24.916Z,10.69
2022-11-15T00:13:24.926Z,10.72
2022-11-15T00:14:24.924Z,10.71
2022-11-15T00:15:25.218Z,10.74
2022-11-15T00:16:24.876Z,10.72
2022-11-15T00:17:24.836Z,10.74
2022-11-15T00:18:25.505Z,10.74
2022-11-15T00:19:24.804Z,10.75
2022-11-15T00:20:24.804Z,10.76
2022-11-15T00:21:24.797Z,10.76
2022-11-15T00:22:24.808Z,10.78
2022-11-15T00:23:24.753Z,10.79
2022-11-15T00:24:24.773Z,10.79
2022-11-15T00:25:24.744Z,10.81
2022-11-15T00:26:24.745Z,10.82
2022-11-15T00:27:25.688Z,10.84
2022-11-15T00:28:24.736Z,10.86
2022-11-15T00:29:24.706Z,10.87
2022-11-15T00:30:24.739Z,10.89
2022-11-15T00:31:25.629Z,10.90
2022-11-15T00:32:24.661Z,10.92
2022-11-15T00:33:24.687Z,10.92
2022-11-15T00:34:24.641Z,10.93
2022-11-15T00:35:24.632Z,10.94
2022-11-15T00:36:24.629Z,10.96
2022-11-15T00:37:24.610Z,10.96
2022-11-15T00:38:24.629Z,10.97
2022-11-15T00:39:24.599Z,10.97
2022-11-15T00:40:24.570Z,10.99
2022-11-15T00:41:24.561Z,10.99
2022-11-15T00:42:24.562Z,11.02
2022-11-15T00:43:24.547Z,11.02
2022-11-15T00:44:24.565Z,11.04
2022-11-15T00:45:24.509Z,11.04
2022-11-15T00:46:24.518Z,11.05
2022-11-15T00:47:24.489Z,11.07
2022-11-15T00:48:24.526Z,11.10
2022-11-15T00:49:24.564Z,11.10
2022-11-15T00:50:24.463Z,11.10
2022-11-15T00:51:24.449Z,11.12
2022-11-15T00:52:24.443Z,11.14
2022-11-15T00:53:24.425Z,11.15
2022-11-15T00:54:24.469Z,11.15
2022-11-15T00:55:24.412Z,11.15
2022-11-15T00:56:24.395Z,11.18
2022-11-15T00:57:24.380Z,11.18
2022-11-15T00:58:24.388Z,11.19
2022-11-15T00:59:24.397Z,11.22
2022-11-15T01:00:24.361Z,11.22
2022-11-15T01:01:24.430Z,11.25
2022-11-15T01:02:24.328Z,11.26
2022-11-15T01:03:24.310Z,11.26
2022-11-15T01:04:24.305Z,11.29
2022-11-15T01:05:24.325Z,11.32
2022-11-15T01:06:25.247Z,11.32
2022-11-15T01:07:24.325Z,11.33
2022-11-15T01:08:24.256Z,11.36
2022-11-15T01:09:24.253Z,11.37
2022-11-15T01:10:24.280Z,11.40
2022-11-15T01:11:24.218Z,11.40
2022-11-15T01:12:24.221Z,11.43
2022-11-15T01:13:24.204Z,11.43
2022-11-15T01:14:25.572Z,11.44
2022-11-15T01:15:24.218Z,11.45
2022-11-15T01:16:24.170Z,11.47
2022-11-15T01:17:24.156Z,11.48
2022-11-15T01:18:24.184Z,11.48
2022-11-15T01:19:24.339Z,11.48
2022-11-15T01:20:24.129Z,11.51
2022-11-15T01:21:24.132Z,11.51
2022-11-15T01:22:24.101Z,11.52
2022-11-15T01:23:24.110Z,11.54
2022-11-15T01:24:24.123Z,11.55
2022-11-15T01:25:24.119Z,11.57
2022-11-15T01:26:24.072Z,11.57
2022-11-15T01:27:24.040Z,11.59
2022-11-15T01:28:24.032Z,11.60
2022-11-15T01:29:24.033Z,11.62
2022-11-15T01:30:24.046Z,11.62
2022-11-15T01:31:24.024Z,11.63
2022-11-15T01:32:24.021Z,11.65
2022-11-15T01:33:23.974Z,11.66
2022-11-15T01:34:23.983Z,11.68
2022-11-15T01:35:23.974Z,11.68
2022-11-15T01:36:24.015Z,11.69
2022-11-15T01:37:23.931Z,11.70
2022-11-15T01:38:23.933Z,11.72
2022-11-15T01:39:23.905Z,11.70
2022-11-15T01:40:23.990Z,11.72
2022-11-15T01:41:23.904Z,11.72
2022-11-15T01:42:23.926Z,11.72
2022-11-15T01:43:23.891Z,11.72
2022-11-15T01:44:23.852Z,11.70
2022-11-15T01:45:24.787Z,11.70
2022-11-15T01:46:23.853Z,11.70
2022-11-15T01:47:23.916Z,11.72
2022-11-15T01:48:23.807Z,11.70
2022-11-15T01:49:23.811Z,11.70
2022-11-15T01:50:23.789Z,11.70
2022-11-15T01:51:23.771Z,11.70
2022-11-15T01:52:23.758Z,11.70
2022-11-15T01:53:23.779Z,11.70
2022-11-15T01:54:23.739Z,11.70
2022-11-15T01:55:23.730Z,11.72
2022-11-15T01:56:23.729Z,11.73
2022-11-15T01:57:23.723Z,11.72
2022-11-15T01:58:23.708Z,11.73
2022-11-15T01:59:23.682Z,11.75
2022-11-15T02:00:23.705Z,11.75
2022-11-15T02:01:23.705Z,11.75
2022-11-15T02:02:23.654Z,11.75
2022-11-15T02:03:23.650Z,11.75
2022-11-15T02:04:23.642Z,11.78
2022-11-15T02:05:23.610Z,11.78
2022-11-15T02:06:23.610Z,11.80
2022-11-15T02:07:23.689Z,11.78
2022-11-15T02:08:23.622Z,11.80
2022-11-15T02:09:23.583Z,11.80
2022-11-15T02:10:23.570Z,11.81
2022-11-15T02:11:23.553Z,11.81
2022-11-15T02:12:23.535Z,11.81
2022-11-15T02:13:23.515Z,11.81
2022-11-15T02:14:23.528Z,11.81
2022-11-15T02:15:23.533Z,11.83
2022-11-15T02:16:23.501Z,11.84
2022-11-15T02:17:23.507Z,11.84
2022-11-15T02:18:23.463Z,11.86
2022-11-15T02:19:23.451Z,11.86
2022-11-15T02:20:23.451Z,11.86
2022-11-15T02:21:23.435Z,11.87
2022-11-15T02:22:23.439Z,11.87
2022-11-15T02:23:23.446Z,11.88
2022-11-15T02:24:23.398Z,11.86
2022-11-15T02:25:23.387Z,11.88
2022-11-15T02:26:23.375Z,11.87
2022-11-15T02:27:23.367Z,11.87
2022-11-15T02:28:23.361Z,11.88
2022-11-15T02:29:23.351Z,11.90
2022-11-15T02:30:23.327Z,11.88
2022-11-15T02:31:23.339Z,11.91
2022-11-15T02:32:23.339Z,11.94
2022-11-15T02:33:23.308Z,11.94
2022-11-15T02:34:23.298Z,11.94
2022-11-15T02:35:23.285Z,11.97
2022-11-15T02:36:23.289Z,11.97
2022-11-15T02:37:23.277Z,11.99
2022-11-15T02:38:23.250Z,12.00
2022-11-15T02:39:23.232Z,12.02
2022-11-15T02:40:23.220Z,12.03
2022-11-15T02:41:24.161Z,12.04
2022-11-15T02:42:23.271Z,12.04
2022-11-15T02:43:23.190Z,12.06
2022-11-15T02:44:23.171Z,12.07
2022-11-15T02:45:23.171Z,12.09
2022-11-15T02:46:23.181Z,12.10
2022-11-15T02:47:23.135Z,12.13
2022-11-15T02:48:23.185Z,12.10
2022-11-15T02:49:23.113Z,12.12
2022-11-15T02:50:23.114Z,12.10
2022-11-15T02:51:23.098Z,12.13
2022-11-15T02:52:23.081Z,12.13
2022-11-15T02:53:23.074Z,12.12
2022-11-15T02:54:23.096Z,12.13
2022-11-15T02:55:23.054Z,12.15
2022-11-15T02:56:23.087Z,12.15
2022-11-15T02:57:23.059Z,12.15
2022-11-15T02:58:23.026Z,12.17
2022-11-15T02:59:23.004Z,12.15
2022-11-15T03:00:23.026Z,12.18
2022-11-15T03:01:23.052Z,12.20
2022-11-15T03:02:22.981Z,12.20
2022-11-15T03:03:22.967Z,12.21
2022-11-15T03:04:22.989Z,12.20
2022-11-15T03:05:22.986Z,12.21
2022-11-15T03:06:22.944Z,12.22
2022-11-15T03:07:23.018Z,12.22
2022-11-15T03:08:22.910Z,12.24
2022-11-15T03:09:22.892Z,12.22
2022-11-15T03:10:22.893Z,12.25
2022-11-15T03:11:22.891Z,12.24
2022-11-15T03:12:22.855Z,12.25
2022-11-15T03:13:22.848Z,12.25
2022-11-15T03:14:22.859Z,12.27
2022-11-15T03:15:22.839Z,12.27
2022-11-15T03:16:22.840Z,12.27
2022-11-15T03:17:22.829Z,12.28
2022-11-15T03:18:22.814Z,12.28
2022-11-15T03:19:22.781Z,12.29
2022-11-15T03:20:22.791Z,12.31
2022-11-15T03:21:22.750Z,12.29
2022-11-15T03:22:22.755Z,12.31
2022-11-15T03:23:22.772Z,12.31
2022-11-15T03:24:26.021Z,12.31
2022-11-15T03:25:22.780Z,12.32
2022-11-15T03:26:22.708Z,12.32
2022-11-15T03:27:22.692Z,12.35
2022-11-15T03:28:22.673Z,12.36
2022-11-15T03:29:22.902Z,12.36
2022-11-15T03:30:22.652Z,12.37
2022-11-15T03:31:22.679Z,12.37
2022-11-15T03:32:22.642Z,12.39
2022-11-15T03:33:22.621Z,12.39
2022-11-15T03:34:22.644Z,12.39
2022-11-15T03:35:22.594Z,12.37
2022-11-15T03:36:22.594Z,12.37
2022-11-15T03:37:22.575Z,12.37
2022-11-15T03:38:24.383Z,12.39
2022-11-15T03:39:22.575Z,12.39
2022-11-15T03:40:22.580Z,12.40
2022-11-15T03:41:22.538Z,12.40
2022-11-15T03:42:22.539Z,12.42
2022-11-15T03:43:22.507Z,12.43
2022-11-15T03:44:22.532Z,12.42
2022-11-15T03:45:22.497Z,12.43
2022-11-15T03:46:22.479Z,12.43
2022-11-15T03:47:22.476Z,12.45
2022-11-15T03:48:22.466Z,12.45
2022-11-15T03:49:22.482Z,12.45
2022-11-15T03:50:22.515Z,12.46
2022-11-15T03:51:22.425Z,12.47
2022-11-15T03:52:22.409Z,12.47
2022-11-15T03:53:22.420Z,12.47
2022-11-15T03:54:22.452Z,12.47
2022-11-15T03:55:22.419Z,12.49
2022-11-15T03:56:22.363Z,12.49
2022-11-15T03:57:22.394Z,12.49
2022-11-15T03:58:22.358Z,12.50
2022-11-15T03:59:22.332Z,12.49
2022-11-15T04:00:22.351Z,12.53
2022-11-15T04:01:22.326Z,12.53
2022-11-15T04:02:22.292Z,12.53
2022-11-15T04:03:22.291Z,12.54
2022-11-15T04:04:22.275Z,12.55
2022-11-15T04:05:22.336Z,12.54
2022-11-15T04:06:22.259Z,12.57
2022-11-15T04:07:22.305Z,12.57
2022-11-15T04:08:22.227Z,12.58
2022-11-15T04:09:22.214Z,12.60
2022-11-15T04:10:22.244Z,12.60
2022-11-15T04:11:22.233Z,12.60
2022-11-15T04:12:22.179Z,12.58
2022-11-15T04:13:22.181Z,12.60
2022-11-15T04:14:22.168Z,12.61
2022-11-15T04:15:22.183Z,12.61
2022-11-15T04:16:22.136Z,12.60
2022-11-15T04:17:22.156Z,12.62
2022-11-15T04:18:22.119Z,12.61
2022-11-15T04:19:22.116Z,12.62
2022-11-15T04:20:23.053Z,12.61
2022-11-15T04:21:22.095Z,12.62
2022-11-15T04:22:22.259Z,12.62
2022-11-15T04:23:22.060Z,12.62
2022-11-15T04:24:22.068Z,12.62
2022-11-15T04:25:24.023Z,12.62
2022-11-15T04:26:22.028Z,12.62
2022-11-15T04:27:22.024Z,12.64
2022-11-15T04:28:22.041Z,12.64
2022-11-15T04:29:21.996Z,12.62
2022-11-15T04:30:21.984Z,12.64
2022-11-15T04:31:21.998Z,12.64
2022-11-15T04:32:21.969Z,12.62
2022-11-15T04:33:21.952Z,12.65
2022-11-15T04:34:21.982Z,12.67
2022-11-15T04:35:21.920Z,12.65
2022-11-15T04:36:21.947Z,12.67
2022-11-15T04:37:21.940Z,12.70
2022-11-15T04:38:21.896Z,12.68
2022-11-15T04:39:21.895Z,12.70
2022-11-15T04:40:21.911Z,12.68
2022-11-15T04:41:21.913Z,12.70
2022-11-15T04:42:21.851Z,12.68
2022-11-15T04:43:21.910Z,12.72
2022-11-15T04:44:21.814Z,12.73
2022-11-15T04:45:21.954Z,12.73
2022-11-15T04:46:21.818Z,12.72
2022-11-15T04:47:21.816Z,12.72
2022-11-15T04:48:21.777Z,12.73
2022-11-15T04:49:21.788Z,12.73
2022-11-15T04:50:21.795Z,12.72
2022-11-15T04:51:21.791Z,12.75
2022-11-15T04:52:21.803Z,12.75
2022-11-15T04:53:21.747Z,12.75
2022-11-15T04:54:21.745Z,12.75
2022-11-15T04:55:21.726Z,12.75
2022-11-15T04:56:21.721Z,12.75
2022-11-15T04:57:21.705Z,12.76
2022-11-15T04:58:21.728Z,12.76
2022-11-15T04:59:21.740Z,12.75
2022-11-15T05:00:21.690Z,12.76
2022-11-15T05:01:22.672Z,12.76
2022-11-15T05:02:21.625Z,12.78
2022-11-15T05:03:21.694Z,12.76
2022-11-15T05:04:21.609Z,12.78
2022-11-15T05:05:21.632Z,12.79
2022-11-15T05:06:22.589Z,12.76
2022-11-15T05:07:21.590Z,12.78
2022-11-15T05:08:21.630Z,12.78
2022-11-15T05:09:21.597Z,12.79
2022-11-15T05:10:21.520Z,12.79
2022-11-15T05:11:21.578Z,12.79
2022-11-15T05:12:21.511Z,12.80
2022-11-15T05:13:21.510Z,12.78
2022-11-15T05:14:21.515Z,12.78
2022-11-15T05:15:21.525Z,12.76
2022-11-15T05:16:21.510Z,12.76
2022-11-15T05:17:21.451Z,12.78
2022-11-15T05:18:23.686Z,12.76
2022-11-15T05:19:21.432Z,12.78
2022-11-15T05:20:21.452Z,12.78
2022-11-15T05:21:21.414Z,12.76
2022-11-15T05:22:21.407Z,12.76
2022-11-15T05:23:21.373Z,12.75
2022-11-15T05:24:21.378Z,12.76
2022-11-15T05:25:21.364Z,12.75
2022-11-15T05:26:21.407Z,12.75
2022-11-15T05:27:21.354Z,12.73
2022-11-15T05:28:21.320Z,12.73
2022-11-15T05:29:21.320Z,12.72
2022-11-15T05:30:21.311Z,12.70
2022-11-15T05:31:21.295Z,12.72
2022-11-15T05:32:21.301Z,12.70
2022-11-15T05:33:21.298Z,12.70
2022-11-15T05:34:21.279Z,12.70
2022-11-15T05:35:21.262Z,12.70
2022-11-15T05:36:21.235Z,12.70
2022-11-15T05:37:21.258Z,12.70
2022-11-15T05:38:21.281Z,12.68
2022-11-15T05:39:21.218Z,12.68
2022-11-15T05:40:21.260Z,12.68
2022-11-15T05:41:21.184Z,12.67
2022-11-15T05:42:21.193Z,12.67
2022-11-15T05:43:21.177Z,12.65
2022-11-15T05:44:21.164Z,12.65
2022-11-15T05:45:26.505Z,12.65
2022-11-15T05:46:22.122Z,12.65
2022-11-15T05:47:21.124Z,12.65
2022-11-15T05:48:21.135Z,12.65
2022-11-15T05:49:21.140Z,12.67
2022-11-15T05:50:21.103Z,12.67
2022-11-15T05:51:21.072Z,12.65
2022-11-15T05:52:21.101Z,12.65
2022-11-15T05:53:21.081Z,12.65
2022-11-15T05:54:21.031Z,12.65
2022-11-15T05:55:22.034Z,12.64
2022-11-15T05:56:21.030Z,12.64
2022-11-15T05:57:21.018Z,12.64
2022-11-15T05:58:22.463Z,12.64
2022-11-15T05:59:22.451Z,12.64
2022-11-15T06:00:21.006Z,12.64
2022-11-15T06:01:22.464Z,12.62
2022-11-15T06:02:20.993Z,12.64
2022-11-15T06:03:20.935Z,12.64
2022-11-15T06:04:20.927Z,12.64
2022-11-15T06:05:20.918Z,12.62
2022-11-15T06:06:20.903Z,12.61
2022-11-15T06:07:20.939Z,12.62
2022-11-15T06:08:20.939Z,12.61
2022-11-15T06:09:21.052Z,12.61
2022-11-15T06:10:20.844Z,12.61
2022-11-15T06:11:20.845Z,12.61
2022-11-15T06:12:20.873Z,12.60
2022-11-15T06:13:20.840Z,12.61
2022-11-15T06:14:21.617Z,12.60
2022-11-15T06:15:20.787Z,12.61
2022-11-15T06:16:20.794Z,12.61
2022-11-15T06:17:20.779Z,12.61
2022-11-15T06:18:20.791Z,12.60
2022-11-15T06:19:22.205Z,12.60
2022-11-15T06:20:20.733Z,12.61
2022-11-15T06:21:20.748Z,12.60
2022-11-15T06:22:20.719Z,12.61
2022-11-15T06:23:20.751Z,12.61
2022-11-15T06:24:20.698Z,12.61
2022-11-15T06:25:20.844Z,12.62
2022-11-15T06:26:20.708Z,12.64
2022-11-15T06:27:20.681Z,12.64
2022-11-15T06:28:20.651Z,12.65
2022-11-15T06:29:21.031Z,12.64
2022-11-15T06:30:20.628Z,12.65
2022-11-15T06:31:20.622Z,12.67
2022-11-15T06:32:20.613Z,12.65
2022-11-15T06:33:20.604Z,12.65
2022-11-15T06:34:20.587Z,12.64
2022-11-15T06:35:21.139Z,12.64
2022-11-15T06:36:20.609Z,12.64
2022-11-15T06:37:20.569Z,12.64
2022-11-15T06:38:20.535Z,12.64
2022-11-15T06:39:20.537Z,12.64
2022-11-15T06:40:20.546Z,12.64
2022-11-15T06:41:20.519Z,12.64
2022-11-15T06:42:20.503Z,12.64
2022-11-15T06:43:20.476Z,12.62
2022-11-15T06:44:20.475Z,12.64
2022-11-15T06:45:20.507Z,12.64
2022-11-15T06:46:21.193Z,12.62
2022-11-15T06:47:20.442Z,12.62
2022-11-15T06:48:20.435Z,12.61
2022-11-15T06:49:20.415Z,12.61
2022-11-15T06:50:20.429Z,12.61
2022-11-15T06:51:20.410Z,12.60
2022-11-15T06:52:20.381Z,12.61
2022-11-15T06:53:20.418Z,12.58
2022-11-15T06:54:20.355Z,12.58
2022-11-15T06:55:20.415Z,12.58
2022-11-15T06:56:20.329Z,12.57
2022-11-15T06:57:20.339Z,12.58
2022-11-15T06:58:20.903Z,12.55
2022-11-15T06:59:20.309Z,12.58
2022-11-15T07:00:20.281Z,12.57
2022-11-15T07:01:20.407Z,12.55
2022-11-15T07:02:20.290Z,12.57
2022-11-15T07:03:20.280Z,12.57
2022-11-15T07:04:20.252Z,12.58
2022-11-15T07:05:20.247Z,12.58
2022-11-15T07:06:20.249Z,12.58
2022-11-15T07:07:20.242Z,12.58
2022-11-15T07:08:21.159Z,12.58
2022-11-15T07:09:20.425Z,12.58
2022-11-15T07:10:21.140Z,12.60
2022-11-15T07:11:21.116Z,12.60
2022-11-15T07:12:20.225Z,12.61
2022-11-15T07:13:20.235Z,12.61
2022-11-15T07:14:20.145Z,12.61
2022-11-15T07:15:20.119Z,12.61
2022-11-15T07:16:20.115Z,12.62
2022-11-15T07:17:20.109Z,12.62
2022-11-15T07:18:20.124Z,12.64
2022-11-15T07:19:20.087Z,12.64
2022-11-15T07:20:20.081Z,12.65
2022-11-15T07:21:24.784Z,12.64
2022-11-15T07:22:21.062Z,12.65
2022-11-15T07:23:20.120Z,12.65
2022-11-15T07:24:20.072Z,12.65
2022-11-15T07:25:21.472Z,12.68
2022-11-15T07:26:21.459Z,12.67
2022-11-15T07:27:19.996Z,12.68
2022-11-15T07:28:19.971Z,12.70
2022-11-15T07:29:20.403Z,12.70
2022-11-15T07:30:19.960Z,12.70
2022-11-15T07:31:19.952Z,12.72
2022-11-15T07:32:19.930Z,12.72
2022-11-15T07:33:19.941Z,12.73
2022-11-15T07:34:19.922Z,12.73
2022-11-15T07:35:19.920Z,12.75
2022-11-15T07:36:19.913Z,12.75
2022-11-15T07:37:19.892Z,12.76
2022-11-15T07:38:19.869Z,12.76
2022-11-15T07:39:19.845Z,12.76
2022-11-15T07:40:19.863Z,12.78
2022-11-15T07:41:19.861Z,12.78
2022-11-15T07:42:19.888Z,12.79
2022-11-15T07:43:19.835Z,12.78
2022-11-15T07:44:20.756Z,12.79
2022-11-15T07:45:19.788Z,12.80
2022-11-15T07:46:19.772Z,12.80
2022-11-15T07:47:19.781Z,12.80
2022-11-15T07:48:19.822Z,12.79
2022-11-15T07:49:19.770Z,12.80
2022-11-15T07:50:19.832Z,12.79
2022-11-15T07:51:19.714Z,12.80
2022-11-15T07:52:19.713Z,12.82
2022-11-15T07:53:19.700Z,12.82
2022-11-15T07:54:19.738Z,12.82
2022-11-15T07:55:19.688Z,12.83
2022-11-15T07:56:19.667Z,12.82
2022-11-15T07:57:19.688Z,12.82
2022-11-15T07:58:19.681Z,12.79
2022-11-15T07:59:19.634Z,12.70
2022-11-15T08:00:19.681Z,12.58
2022-11-15T08:01:19.709Z,12.46
2022-11-15T08:02:20.324Z,12.36
2022-11-15T08:03:19.593Z,12.28
2022-11-15T08:04:19.592Z,12.22
2022-11-15T08:05:19.614Z,12.15
2022-11-15T08:06:19.616Z,12.12
2022-11-15T08:07:19.593Z,12.09
2022-11-15T08:08:21.008Z,12.03
2022-11-15T08:09:20.986Z,12.00
2022-11-15T08:10:19.692Z,11.99
2022-11-15T08:11:20.332Z,11.95
2022-11-15T08:12:19.642Z,11.94
2022-11-15T08:13:19.563Z,11.91
2022-11-15T08:14:19.464Z,11.90
2022-11-15T08:15:19.463Z,11.90
2022-11-15T08:16:19.474Z,11.88
2022-11-15T08:17:19.464Z,11.91
2022-11-15T08:18:19.406Z,11.94
2022-11-15T08:19:19.485Z,11.95
2022-11-15T08:20:21.353Z,11.97
2022-11-15T08:21:20.866Z,11.97
2022-11-15T08:22:19.447Z,12.02
2022-11-15T08:23:20.887Z,12.02
2022-11-15T08:24:19.651Z,12.03
2022-11-15T08:25:20.184Z,12.04
2022-11-15T08:26:20.371Z,12.03
2022-11-15T08:27:20.332Z,12.03
2022-11-15T08:28:19.512Z,12.03
2022-11-15T08:29:20.755Z,12.04
2022-11-15T08:30:20.024Z,12.03
2022-11-15T08:31:20.112Z,12.02
2022-11-15T08:32:19.328Z,12.03
2022-11-15T08:33:20.097Z,12.04
2022-11-15T08:34:20.292Z,12.04
2022-11-15T08:35:23.707Z,12.06
2022-11-15T08:36:20.217Z,12.07
2022-11-15T08:37:20.660Z,12.07
2022-11-15T08:38:19.207Z,12.10
2022-11-15T08:39:20.012Z,12.12
2022-11-15T08:40:19.164Z,12.12
2022-11-15T08:41:19.253Z,12.13
2022-11-15T08:42:20.127Z,12.15
2022-11-15T08:43:19.230Z,12.17
2022-11-15T08:44:19.193Z,12.20
2022-11-15T08:45:20.094Z,12.21
2022-11-15T08:46:19.104Z,12.22
2022-11-15T08:47:19.201Z,12.25
2022-11-15T08:48:19.122Z,12.24
2022-11-15T08:49:19.231Z,12.27
2022-11-15T08:50:19.070Z,12.29
2022-11-15T08:51:20.511Z,12.31
2022-11-15T08:52:19.083Z,12.32
2022-11-15T08:53:19.322Z,12.32
2022-11-15T08:54:19.051Z,12.32
2022-11-15T08:55:19.038Z,12.35
2022-11-15T08:56:19.100Z,12.36
2022-11-15T08:57:18.970Z,12.36
2022-11-15T08:58:18.970Z,12.36
2022-11-15T08:59:18.985Z,12.36
2022-11-15T09:00:18.946Z,12.37
2022-11-15T09:01:19.079Z,12.36
2022-11-15T09:02:18.969Z,12.36
2022-11-15T09:03:19.408Z,12.37
2022-11-15T09:04:18.893Z,12.39
2022-11-15T09:05:18.928Z,12.42
2022-11-15T09:06:18.886Z,12.43
2022-11-15T09:07:19.371Z,12.46
2022-11-15T09:08:46.124Z,12.47
2022-11-15T09:09:19.833Z,12.50
2022-11-15T09:10:18.883Z,12.54
2022-11-15T09:11:18.814Z,12.60
2022-11-15T09:12:18.808Z,12.62
2022-11-15T09:13:18.826Z,12.67
2022-11-15T09:14:18.788Z,12.72
2022-11-15T09:15:18.798Z,12.76
2022-11-15T09:16:19.081Z,12.78
2022-11-15T09:17:24.261Z,12.79
2022-11-15T09:18:22.199Z,12.83
2022-11-15T09:19:18.744Z,12.83
2022-11-15T09:20:18.716Z,12.85
2022-11-15T09:21:20.159Z,12.87
2022-11-15T09:22:21.366Z,12.87
2022-11-15T09:23:18.789Z,12.93
2022-11-15T09:24:18.725Z,12.91
2022-11-15T09:25:18.682Z,12.93
2022-11-15T09:26:18.673Z,12.91
2022-11-15T09:27:19.621Z,12.93
2022-11-15T09:28:18.663Z,12.91
2022-11-15T09:29:18.678Z,12.87
2022-11-15T09:30:18.733Z,12.90
2022-11-15T09:31:21.104Z,12.87
2022-11-15T09:32:18.592Z,12.90
2022-11-15T09:33:18.589Z,12.91
2022-11-15T09:34:18.562Z,12.93
2022-11-15T09:35:19.375Z,12.94
2022-11-15T09:36:18.566Z,12.95
2022-11-15T09:37:18.520Z,12.97
2022-11-15T09:38:18.536Z,12.98
2022-11-15T09:39:18.518Z,12.98
2022-11-15T09:40:18.508Z,13.01
2022-11-15T09:41:18.543Z,13.03
2022-11-15T09:42:18.485Z,13.04
2022-11-15T09:43:18.453Z,13.08
2022-11-15T09:44:25.081Z,13.08
2022-11-15T09:45:19.680Z,13.11
2022-11-15T09:46:18.439Z,13.12
2022-11-15T09:47:18.435Z,13.13
2022-11-15T09:48:18.442Z,13.15
2022-11-15T09:49:18.411Z,13.15
2022-11-15T09:50:18.382Z,13.18
2022-11-15T09:51:18.367Z,13.18
2022-11-15T09:52:18.395Z,13.16
2022-11-15T09:53:21.957Z,13.19
2022-11-15T09:54:51.138Z,13.19
2022-11-15T09:55:19.326Z,13.20
2022-11-15T09:56:18.315Z,13.20
2022-11-15T09:57:18.300Z,13.19
2022-11-15T09:58:18.317Z,13.19
2022-11-15T09:59:18.365Z,13.19
2022-11-15T10:00:44.911Z,13.20
2022-11-15T10:01:19.298Z,13.19
2022-11-15T10:02:18.283Z,13.20
2022-11-15T10:03:18.270Z,13.20
2022-11-15T10:04:18.237Z,13.20
2022-11-15T10:05:18.251Z,13.20
2022-11-15T10:06:18.201Z,13.22
2022-11-15T10:07:18.337Z,13.23
2022-11-15T10:08:18.273Z,13.23
2022-11-15T10:09:22.698Z,13.25
2022-11-15T10:10:19.186Z,13.27
2022-11-15T10:12:19.148Z,13.30
2022-11-15T10:13:18.152Z,13.30
2022-11-15T10:14:18.120Z,13.30
2022-11-15T10:15:18.102Z,13.30
2022-11-15T10:16:18.665Z,13.33
2022-11-15T10:17:18.083Z,13.30
2022-11-15T10:18:18.129Z,13.31
2022-11-15T10:19:18.066Z,13.35
2022-11-15T10:20:18.193Z,13.37
2022-11-15T10:21:18.083Z,13.37
2022-11-15T10:22:18.023Z,13.38
2022-11-15T10:23:18.354Z,13.39
2022-11-15T10:24:18.015Z,13.39
2022-11-15T10:25:17.985Z,13.41
2022-11-15T10:26:17.996Z,13.42
2022-11-15T10:27:18.938Z,13.44
2022-11-15T10:28:17.978Z,13.44
2022-11-15T10:29:19.398Z,13.42
2022-11-15T10:30:17.994Z,13.44
2022-11-15T10:31:17.965Z,13.44
2022-11-15T10:32:17.920Z,13.44
2022-11-15T10:33:18.266Z,13.44
2022-11-15T10:34:17.912Z,13.44
2022-11-15T10:35:17.880Z,13.44
2022-11-15T10:36:17.907Z,13.46
2022-11-15T10:37:17.958Z,13.46
2022-11-15T10:38:17.867Z,13.46
2022-11-15T10:39:18.662Z,13.46
2022-11-15T10:40:17.926Z,13.47
2022-11-15T10:41:18.157Z,13.47
2022-11-15T10:42:18.190Z,13.50
2022-11-15T10:43:17.872Z,13.52
2022-11-15T10:44:17.807Z,13.53
2022-11-15T10:45:18.816Z,13.56
2022-11-15T10:46:39.753Z,13.57
2022-11-15T10:47:18.796Z,13.57
2022-11-15T10:48:17.760Z,13.59
2022-11-15T10:49:17.762Z,13.59
2022-11-15T10:50:17.850Z,13.60
2022-11-15T10:51:18.673Z,13.62
2022-11-15T10:52:17.698Z,13.63
2022-11-15T10:53:17.775Z,13.65
2022-11-15T10:54:21.041Z,13.70
2022-11-15T10:55:17.723Z,13.67
2022-11-15T10:56:17.672Z,13.70
2022-11-15T10:57:17.701Z,13.70
2022-11-15T10:58:17.636Z,13.68
2022-11-15T10:59:17.693Z,13.70
2022-11-15T11:00:17.628Z,13.71
2022-11-15T11:01:18.938Z,13.72
2022-11-15T11:02:18.545Z,13.72
2022-11-15T11:03:17.717Z,13.72
2022-11-15T11:04:17.559Z,13.71
2022-11-15T11:05:17.694Z,13.71
2022-11-15T11:06:17.585Z,13.71
2022-11-15T11:07:17.678Z,13.72
2022-11-15T11:08:17.515Z,13.72
2022-11-15T11:09:17.593Z,13.74
2022-11-15T11:10:44.187Z,13.75
2022-11-15T11:11:18.482Z,13.78
2022-11-15T11:12:17.521Z,13.78
2022-11-15T11:13:17.468Z,13.81
2022-11-15T11:14:17.522Z,13.81
2022-11-15T11:15:17.464Z,13.85
2022-11-15T11:16:17.573Z,13.86
2022-11-15T11:17:17.401Z,13.92
2022-11-15T11:18:17.438Z,13.92
2022-11-15T11:19:17.539Z,13.96
2022-11-15T11:20:17.402Z,13.96
2022-11-15T11:21:17.359Z,13.99
2022-11-15T11:22:17.378Z,14.00
2022-11-15T11:23:17.334Z,14.00
2022-11-15T11:24:17.336Z,14.03
2022-11-15T11:25:17.413Z,14.04
2022-11-15T11:26:18.282Z,14.04
2022-11-15T11:27:17.296Z,14.03
2022-11-15T11:28:17.275Z,14.03
2022-11-15T11:29:17.305Z,14.05
2022-11-15T11:30:17.314Z,14.05
2022-11-15T11:31:17.245Z,14.08
2022-11-15T11:32:17.263Z,14.12
2022-11-15T11:33:17.294Z,14.14
2022-11-15T11:34:17.229Z,14.15
2022-11-15T11:35:17.257Z,14.17
2022-11-15T11:36:17.253Z,14.15
2022-11-15T11:37:17.184Z,14.14
2022-11-15T11:38:17.186Z,14.15
2022-11-15T11:39:17.155Z,14.20
2022-11-15T11:40:17.174Z,14.23
2022-11-15T11:41:18.089Z,14.26
2022-11-15T11:42:18.107Z,14.29
2022-11-15T11:43:17.119Z,14.30
2022-11-15T11:44:18.067Z,14.33
2022-11-15T11:45:17.102Z,14.33
2022-11-15T11:46:17.112Z,14.35
2022-11-15T11:47:17.350Z,14.33
2022-11-15T11:48:17.108Z,14.35
2022-11-15T11:49:17.476Z,14.33
2022-11-15T11:50:17.027Z,14.35
2022-11-15T11:51:17.016Z,14.35
2022-11-15T11:52:17.054Z,14.35
2022-11-15T11:53:17.009Z,14.35
2022-11-15T11:54:16.990Z,14.33
2022-11-15T11:55:16.969Z,14.33
2022-11-15T11:56:16.979Z,14.40
2022-11-15T11:57:16.955Z,14.41
2022-11-15T11:58:16.960Z,14.45
2022-11-15T11:59:16.949Z,14.48
2022-11-15T12:00:17.003Z,14.55
2022-11-15T12:01:17.122Z,14.62
2022-11-15T12:02:16.998Z,14.69
2022-11-15T12:03:17.591Z,14.73
2022-11-15T12:04:16.871Z,14.81
2022-11-15T12:05:17.775Z,14.84
2022-11-15T12:06:17.780Z,14.84
2022-11-15T12:07:17.843Z,14.84
2022-11-15T12:08:17.068Z,14.84
2022-11-15T12:09:16.864Z,14.84
2022-11-15T12:10:16.862Z,14.84
2022-11-15T12:11:16.811Z,14.82
2022-11-15T12:12:17.036Z,14.82
2022-11-15T12:13:16.772Z,14.81
2022-11-15T12:14:17.085Z,14.79
2022-11-15T12:15:16.758Z,14.78
2022-11-15T12:16:16.737Z,14.81
2022-11-15T12:17:16.737Z,14.79
2022-11-15T12:18:16.706Z,14.81
2022-11-15T12:19:16.707Z,14.82
2022-11-15T12:20:16.722Z,14.82
2022-11-15T12:21:16.955Z,14.82
2022-11-15T12:22:16.679Z,14.84
2022-11-15T12:23:16.721Z,14.85
2022-11-15T12:24:16.646Z,14.86
2022-11-15T12:25:16.652Z,14.86
2022-11-15T12:26:16.626Z,14.86
2022-11-15T12:27:19.504Z,14.85
2022-11-15T12:28:17.658Z,14.82
2022-11-15T12:29:16.596Z,14.81
2022-11-15T12:30:16.642Z,14.78
2022-11-15T12:31:17.345Z,14.77
2022-11-15T12:32:16.563Z,14.77
2022-11-15T12:33:16.546Z,14.79
2022-11-15T12:34:16.620Z,14.81
2022-11-15T12:35:16.520Z,14.82
2022-11-15T12:36:16.520Z,14.85
2022-11-15T12:37:16.501Z,14.92
2022-11-15T12:38:16.514Z,14.99
2022-11-15T12:39:16.472Z,15.03
2022-11-15T12:40:16.499Z,15.14
2022-11-15T12:41:16.502Z,15.19
2022-11-15T12:42:16.453Z,15.25
2022-11-15T12:43:16.437Z,15.31
2022-11-15T12:44:16.429Z,15.39
2022-11-15T12:45:16.439Z,15.43
2022-11-15T12:46:16.445Z,15.49
2022-11-15T12:47:19.450Z,15.52
2022-11-15T12:48:17.418Z,15.57
2022-11-15T12:49:16.367Z,15.61
2022-11-15T12:50:16.398Z,15.67
2022-11-15T12:51:16.339Z,15.73
2022-11-15T12:52:16.331Z,15.77
2022-11-15T12:53:16.327Z,15.83